Cape Cod — WBK3243 — position and weather

sailwx.info

Track history (hours):
 
Tides and Currents Weather Stations Pressure Air Temp Water Temp Dewpoint Dewpoint Depression Visibility Wind Speed Wind Dir Waves Ship Positions

Cape Cod

Owner: MORAN TOWING CORPORATION, New Canaan, CT. More information available from US FCC via Universal Licensing System and Coast Guard Vessel Documentation Center.

Last reported at 2017-Jun-23 03:30 UTC. Time now 2017-Jun-23 03:30 UTC.
Position N 39°53' W 075°11'.

Length 33 m; draft 4.8 m.

Type: Tug. MMSI: 366939770.

Date/timePositionNaut miles runAvg speedWind from/ knotsBaromVisibWave heightAir tempDewpointWater temp
2017-Jun-23 03:30N 39°53' W 075°11'0 0.0
2017-Jun-23 03:00N 39°53' W 075°11'0 0.0
2017-Jun-23 02:30N 39°53' W 075°11'0 0.0
2017-Jun-23 02:00N 39°53' W 075°11'0 0.0
2017-Jun-23 01:30N 39°53' W 075°11'0 0.1
2017-Jun-23 01:00N 39°53' W 075°11'2 4.7
2017-Jun-23 00:30N 39°54' W 075°08'0 0.9
2017-Jun-23 00:00N 39°54' W 075°08'2 4.3
2017-Jun-22 23:30N 39°53' W 075°11'0 0.4
2017-Jun-22 23:01N 39°53' W 075°11'0 0.0
2017-Jun-22 22:30N 39°53' W 075°11'2 3.5
2017-Jun-22 22:00N 39°53' W 075°08'1 1.8
2017-Jun-22 21:30N 39°54' W 075°08'0 0.7
2017-Jun-22 21:00N 39°54' W 075°08'0 0.0
2017-Jun-22 20:30N 39°54' W 075°08'0 0.0
2017-Jun-22 20:01N 39°54' W 075°08'0 0.0
2017-Jun-22 19:30N 39°54' W 075°08'0 0.0
2017-Jun-22 19:01N 39°54' W 075°08'0 0.0
2017-Jun-22 18:30N 39°54' W 075°08'0 0.0
2017-Jun-22 18:00N 39°54' W 075°08'0 0.0
2017-Jun-22 17:25N 39°54' W 075°08'0 0.0
2017-Jun-22 16:56N 39°54' W 075°08'0 0.0
2017-Jun-22 16:30N 39°54' W 075°08'0 0.0
2017-Jun-22 16:00N 39°54' W 075°08'0 0.0
2017-Jun-22 15:29N 39°54' W 075°08'0 0.8
2017-Jun-22 15:01N 39°54' W 075°08'0 0.3
2017-Jun-22 14:31N 39°54' W 075°08'2 2.2
2017-Jun-22 13:30N 39°53' W 075°11'0 0.0
2017-Jun-22 13:00N 39°53' W 075°11'0 0.0
2017-Jun-22 12:30N 39°53' W 075°11'0 0.0
2017-Jun-22 12:01N 39°53' W 075°11'0 0.0
2017-Jun-22 11:31N 39°53' W 075°11'0 0.0
2017-Jun-22 11:00N 39°53' W 075°11'0 0.0
2017-Jun-22 10:30N 39°53' W 075°11'0 0.0
2017-Jun-22 10:00N 39°53' W 075°11'0 0.0
2017-Jun-22 09:30N 39°53' W 075°11'0 0.0
2017-Jun-22 09:00N 39°53' W 075°11'0 0.0
2017-Jun-22 08:30N 39°53' W 075°11'0 0.0
2017-Jun-22 08:00N 39°53' W 075°11'0 0.0
2017-Jun-22 07:31N 39°53' W 075°11'0 0.0
2017-Jun-22 07:00N 39°53' W 075°11'0 0.0
2017-Jun-22 06:30N 39°53' W 075°11'0 0.0
2017-Jun-22 06:00N 39°53' W 075°11'0 0.0
2017-Jun-22 05:30N 39°53' W 075°11'0 0.0
2017-Jun-22 05:00N 39°53' W 075°11'0 0.0
2017-Jun-22 04:30N 39°53' W 075°11'0 0.0
2017-Jun-22 04:00N 39°53' W 075°11'0 0.0
2017-Jun-22 03:30N 39°53' W 075°11'0 0.0
2017-Jun-22 03:00N 39°53' W 075°11'0 0.0
2017-Jun-22 02:30N 39°53' W 075°11'0 0.0
2017-Jun-22 02:01N 39°53' W 075°11'0 0.0
2017-Jun-22 01:30N 39°53' W 075°11'0 0.0
2017-Jun-22 01:00N 39°53' W 075°11'0 0.1
2017-Jun-22 00:30N 39°53' W 075°11'5 9.9
2017-Jun-22 00:00N 39°51' W 075°16'3 5.9
2017-Jun-21 23:30N 39°51' W 075°20'0 0.3
2017-Jun-21 22:59N 39°51' W 075°20'2 3.6
2017-Jun-21 22:30N 39°50' W 075°22'1 2.9
2017-Jun-21 22:00N 39°51' W 075°21'0 0.7
2017-Jun-21 21:30N 39°51' W 075°20'0 0.0
2017-Jun-21 21:00N 39°51' W 075°20'0 0.0
2017-Jun-21 20:30N 39°51' W 075°20'0 0.3
2017-Jun-21 20:00N 39°51' W 075°20'3 5.5
2017-Jun-21 19:30N 39°51' W 075°17'3 5.7
2017-Jun-21 19:00N 39°51' W 075°21'2 3.6
2017-Jun-21 18:30N 39°51' W 075°18'510.1
2017-Jun-21 18:00N 39°53' W 075°12'1 2.4
2017-Jun-21 17:31N 39°53' W 075°11'0 0.0
2017-Jun-21 17:00N 39°53' W 075°11'0 0.0
2017-Jun-21 16:30N 39°53' W 075°11'0 0.0
2017-Jun-21 16:00N 39°53' W 075°11'0 0.0
2017-Jun-21 15:31N 39°53' W 075°11'0 0.0
2017-Jun-21 15:00N 39°53' W 075°11'0 0.0
2017-Jun-21 14:30N 39°53' W 075°11'0 0.0
2017-Jun-21 13:31N 39°53' W 075°11'0 0.0
2017-Jun-21 13:00N 39°53' W 075°11'0 0.0
2017-Jun-21 12:31N 39°53' W 075°11'0 0.0
2017-Jun-21 12:00N 39°53' W 075°11'0 0.0
2017-Jun-21 11:30N 39°53' W 075°11'0 0.0
2017-Jun-21 11:01N 39°53' W 075°11'0 0.0
2017-Jun-21 10:30N 39°53' W 075°11'0 0.0
2017-Jun-21 10:00N 39°53' W 075°11'0 0.0
2017-Jun-21 09:30N 39°53' W 075°11'0 0.0
2017-Jun-21 09:00N 39°53' W 075°11'0 0.0
2017-Jun-21 08:30N 39°53' W 075°11'0 0.0
2017-Jun-21 08:00N 39°53' W 075°11'0 0.0
2017-Jun-21 07:31N 39°53' W 075°11'0 0.0
2017-Jun-21 07:00N 39°53' W 075°11'0 0.0
2017-Jun-21 06:30N 39°53' W 075°11'0 0.0
2017-Jun-21 06:00N 39°53' W 075°11'0 0.0
2017-Jun-21 05:30N 39°53' W 075°11'0 0.0
2017-Jun-21 05:00N 39°53' W 075°11'0 0.0
2017-Jun-21 04:30N 39°53' W 075°11'0 0.0
2017-Jun-21 04:00N 39°53' W 075°11'0 0.0
2017-Jun-21 03:30N 39°53' W 075°11'0 0.0
2017-Jun-21 03:00N 39°53' W 075°11'0 0.0
2017-Jun-21 02:31N 39°53' W 075°11'0 0.0
2017-Jun-21 02:01N 39°53' W 075°11'0 0.0
2017-Jun-21 01:30N 39°53' W 075°11'0 0.0
2017-Jun-21 01:00N 39°53' W 075°11'0 0.0
2017-Jun-21 00:30N 39°53' W 075°11'0 0.0
2017-Jun-21 00:00N 39°53' W 075°11'0 0.0
2017-Jun-20 23:30N 39°53' W 075°11'0 0.0
2017-Jun-20 23:00N 39°53' W 075°11'0 0.0
2017-Jun-20 22:31N 39°53' W 075°11'0 0.0
2017-Jun-20 22:00N 39°53' W 075°11'1 2.8
2017-Jun-20 21:30N 39°53' W 075°09'1 1.7
2017-Jun-20 21:00N 39°54' W 075°08'1 2.0
2017-Jun-20 20:30N 39°53' W 075°09'1 2.7
2017-Jun-20 20:00N 39°53' W 075°11'0 0.0
2017-Jun-20 19:30N 39°53' W 075°11'0 0.0
2017-Jun-20 19:00N 39°53' W 075°11'0 0.0
2017-Jun-20 18:30N 39°53' W 075°11'0 0.0
2017-Jun-20 18:00N 39°53' W 075°11'0 0.0
2017-Jun-20 17:30N 39°53' W 075°11'0 0.0
2017-Jun-20 17:00N 39°53' W 075°11'0 0.0
2017-Jun-20 16:31N 39°53' W 075°11'0 0.0
2017-Jun-20 16:00N 39°53' W 075°11'0 0.0
2017-Jun-20 15:30N 39°53' W 075°11'0 0.0
2017-Jun-20 15:00N 39°53' W 075°11'0 0.0
2017-Jun-20 14:30N 39°53' W 075°11'0 0.0
2017-Jun-20 13:30N 39°53' W 075°11'0 0.0
2017-Jun-20 13:00N 39°53' W 075°11'1 1.7
2017-Jun-20 12:30N 39°54' W 075°12'1 1.7
2017-Jun-20 12:00N 39°53' W 075°11'0 0.0
2017-Jun-20 11:30N 39°53' W 075°11'0 0.0
2017-Jun-20 11:01N 39°53' W 075°11'0 0.0
2017-Jun-20 10:30N 39°53' W 075°11'0 0.0
2017-Jun-20 10:01N 39°53' W 075°11'0 0.0
2017-Jun-20 09:31N 39°53' W 075°11'0 0.0
2017-Jun-20 09:00N 39°53' W 075°11'0 0.0
2017-Jun-20 08:31N 39°53' W 075°11'0 0.0
2017-Jun-20 08:00N 39°53' W 075°11'0 0.0
2017-Jun-20 07:30N 39°53' W 075°11'0 0.0
2017-Jun-20 07:00N 39°53' W 075°11'0 0.0
2017-Jun-20 06:30N 39°53' W 075°11'0 0.0
2017-Jun-20 06:00N 39°53' W 075°11'0 0.0
2017-Jun-20 05:31N 39°53' W 075°11'0 0.0
2017-Jun-20 05:01N 39°53' W 075°11'0 0.0
2017-Jun-20 04:30N 39°53' W 075°11'0 0.0
2017-Jun-20 04:01N 39°53' W 075°11'0 0.0
2017-Jun-20 03:31N 39°53' W 075°11'0 0.0
2017-Jun-20 03:01N 39°53' W 075°11'0 0.0
2017-Jun-20 02:30N 39°53' W 075°11'0 0.0
2017-Jun-20 02:01N 39°53' W 075°11'0 0.0
2017-Jun-20 01:31N 39°53' W 075°11'0 0.0
2017-Jun-20 01:00N 39°53' W 075°11'0 0.0
2017-Jun-20 00:30N 39°53' W 075°11'0 0.0
2017-Jun-20 00:00N 39°53' W 075°11'0 0.0
2017-Jun-19 23:30N 39°53' W 075°11'0 0.0
2017-Jun-19 23:00N 39°53' W 075°11'0 0.0
2017-Jun-19 22:30N 39°53' W 075°11'0 0.0
2017-Jun-19 22:00N 39°53' W 075°11'0 0.0
2017-Jun-19 21:31N 39°53' W 075°11'0 0.0
2017-Jun-19 21:00N 39°53' W 075°11'0 0.0
2017-Jun-19 20:30N 39°53' W 075°11'0 0.0
2017-Jun-19 20:00N 39°53' W 075°11'0 0.0
2017-Jun-19 19:31N 39°53' W 075°11'0 0.0
2017-Jun-19 19:00N 39°53' W 075°11'0 0.0
2017-Jun-19 18:30N 39°53' W 075°11'0 0.0
2017-Jun-19 18:01N 39°53' W 075°11'0 0.0
2017-Jun-19 17:30N 39°53' W 075°11'0 0.3
2017-Jun-19 17:01N 39°53' W 075°11'5 8.9
2017-Jun-19 16:30N 39°51' W 075°16'510.6
2017-Jun-19 16:00N 39°50' W 075°22'5 9.2
2017-Jun-19 15:30N 39°47' W 075°27'611.0
2017-Jun-19 15:00N 39°42' W 075°31'1010.2
2017-Jun-19 14:00N 39°32' W 075°33'510.8
2017-Jun-19 13:30N 39°27' W 075°33'611.9
2017-Jun-19 13:00N 39°22' W 075°28'612.3
2017-Jun-19 12:30N 39°18' W 075°22'6 1.4
2017-Jun-19 08:28N 39°13' W 075°18'4 8.2
2017-Jun-19 08:00N 39°16' W 075°21'4 8.8
2017-Jun-19 07:30N 39°19' W 075°24'5 9.2
2017-Jun-19 07:00N 39°23' W 075°28'4 8.7
2017-Jun-19 06:30N 39°26' W 075°32'4 8.3
2017-Jun-19 06:01N 39°30' W 075°33'510.2
2017-Jun-19 05:30N 39°35' W 075°34'5 9.3
2017-Jun-19 05:00N 39°40' W 075°32'510.7
2017-Jun-19 04:30N 39°45' W 075°30'510.4
2017-Jun-19 04:00N 39°48' W 075°25'511.0
2017-Jun-19 03:30N 39°51' W 075°19'510.1
2017-Jun-19 03:00N 39°52' W 075°12'4 8.5
2017-Jun-19 02:30N 39°55' W 075°08'3 5.9
2017-Jun-19 02:00N 39°58' W 075°08'1 2.6
2017-Jun-19 01:31N 39°58' W 075°06'0 0.4
2017-Jun-19 01:00N 39°58' W 075°07'0 0.0
2017-Jun-19 00:30N 39°58' W 075°07'0 0.0
2017-Jun-19 00:00N 39°58' W 075°07'1 2.6
2017-Jun-18 23:30N 39°57' W 075°08'2 4.8
2017-Jun-18 23:00N 39°55' W 075°08'1 1.2
2017-Jun-18 22:30N 39°54' W 075°08'3 5.0
2017-Jun-18 22:00N 39°53' W 075°11'0 0.0
2017-Jun-18 21:30N 39°53' W 075°11'0 0.0
2017-Jun-18 21:00N 39°53' W 075°11'0 0.0
2017-Jun-18 20:30N 39°53' W 075°11'0 0.0
2017-Jun-18 20:00N 39°53' W 075°11'0 0.0
2017-Jun-18 19:30N 39°53' W 075°11'0 0.0
2017-Jun-18 19:00N 39°53' W 075°11'0 0.0
2017-Jun-18 18:30N 39°53' W 075°11'0 0.0
2017-Jun-18 18:01N 39°53' W 075°11'0 0.0
2017-Jun-18 17:31N 39°53' W 075°11'0 0.1
2017-Jun-18 17:00N 39°53' W 075°11'4 7.6
2017-Jun-18 16:29N 39°51' W 075°15'0 0.1
2017-Jun-18 16:00N 39°51' W 075°15'0 0.8
2017-Jun-18 15:30N 39°51' W 075°15'0 0.5
2017-Jun-18 15:01N 39°51' W 075°15'6 5.7
2017-Jun-18 14:00N 39°54' W 075°08'0 0.8
2017-Jun-18 13:30N 39°53' W 075°08'2 3.2
2017-Jun-18 13:00N 39°53' W 075°10'0 0.9
2017-Jun-18 12:30N 39°53' W 075°11'0 0.0
2017-Jun-18 12:00N 39°53' W 075°11'0 0.0
2017-Jun-18 11:30N 39°53' W 075°11'0 0.3
2017-Jun-18 11:00N 39°53' W 075°10'0 0.3
2017-Jun-18 10:31N 39°53' W 075°11'0 0.0
2017-Jun-18 10:00N 39°53' W 075°11'0 0.0
2017-Jun-18 09:30N 39°53' W 075°11'0 0.0
2017-Jun-18 09:01N 39°53' W 075°11'0 0.0
2017-Jun-18 08:31N 39°53' W 075°11'0 0.0
2017-Jun-18 08:01N 39°53' W 075°11'0 0.0
2017-Jun-18 07:31N 39°53' W 075°11'0 0.0
2017-Jun-18 07:01N 39°53' W 075°11'0 0.0
2017-Jun-18 06:31N 39°53' W 075°11'0 0.0
2017-Jun-18 06:00N 39°53' W 075°11'0 0.0
2017-Jun-18 05:30N 39°53' W 075°11'0 0.0
2017-Jun-18 05:00N 39°53' W 075°11'0 0.0
2017-Jun-18 04:30N 39°53' W 075°11'0 0.0
2017-Jun-18 04:00N 39°53' W 075°11'0 0.0
2017-Jun-18 03:30N 39°53' W 075°11'0 0.0
2017-Jun-18 03:00N 39°53' W 075°11'0 0.0
2017-Jun-18 02:30N 39°53' W 075°11'2 3.6
2017-Jun-18 02:00N 39°53' W 075°08'4 8.5
2017-Jun-18 01:30N 39°58' W 075°08'2 3.5
2017-Jun-18 01:00N 39°58' W 075°06'2 4.3
2017-Jun-18 00:30N 39°57' W 075°08'2 4.1
2017-Jun-18 00:00N 39°58' W 075°06'1 1.4
2017-Jun-17 23:30N 39°58' W 075°07'3 5.9
2017-Jun-17 23:00N 39°55' W 075°08'4 7.3
2017-Jun-17 22:30N 39°53' W 075°12'510.3
2017-Jun-17 22:00N 39°51' W 075°18'510.9
2017-Jun-17 21:30N 39°49' W 075°24'611.3
2017-Jun-17 21:00N 39°45' W 075°30'611.4
2017-Jun-17 20:30N 39°39' W 075°33'5 9.9
2017-Jun-17 20:00N 39°35' W 075°33'511.0
2017-Jun-17 19:30N 39°29' W 075°34'510.1
2017-Jun-17 19:00N 39°25' W 075°30'611.1
2017-Jun-17 18:30N 39°21' W 075°26'9 1.9
2017-Jun-17 14:00N 39°14' W 075°18'815.2
2017-Jun-17 13:30N 39°20' W 075°25'714.9
2017-Jun-17 13:01N 39°25' W 075°31'713.2
2017-Jun-17 12:31N 39°32' W 075°33'713.0
2017-Jun-17 12:00N 39°38' W 075°34'612.2
2017-Jun-17 11:31N 39°43' W 075°30'611.7
2017-Jun-17 11:01N 39°48' W 075°26'5 9.5
2017-Jun-17 10:30N 39°51' W 075°21'510.5
2017-Jun-17 10:00N 39°52' W 075°14'3 6.3
2017-Jun-17 09:30N 39°53' W 075°11'1 1.2
2017-Jun-17 08:59N 39°53' W 075°11'1 3.0
2017-Jun-17 08:30N 39°52' W 075°13'1 2.7
2017-Jun-17 08:00N 39°53' W 075°11'1 1.4
2017-Jun-17 07:31N 39°53' W 075°11'0 0.0
2017-Jun-17 07:00N 39°53' W 075°11'0 0.0
2017-Jun-17 06:30N 39°53' W 075°11'0 0.0
2017-Jun-17 06:00N 39°53' W 075°11'0 0.0
2017-Jun-17 05:30N 39°53' W 075°11'0 0.0
2017-Jun-17 05:00N 39°53' W 075°11'0 0.0
2017-Jun-17 04:30N 39°53' W 075°11'0 0.0
2017-Jun-17 04:01N 39°53' W 075°11'0 0.0
2017-Jun-17 03:30N 39°53' W 075°11'0 0.0
2017-Jun-17 03:00N 39°53' W 075°11'2 1.9
2017-Jun-17 01:49N 39°52' W 075°13'2 6.2
2017-Jun-17 01:30N 39°53' W 075°11'0 0.7
2017-Jun-17 01:01N 39°53' W 075°11'0 0.0
2017-Jun-17 00:30N 39°53' W 075°11'0 0.0
2017-Jun-17 00:00N 39°53' W 075°11'0 0.0
2017-Jun-16 23:30N 39°53' W 075°11'0 0.0
2017-Jun-16 23:00N 39°53' W 075°11'0 0.0
2017-Jun-16 22:30N 39°53' W 075°11'0 0.0
2017-Jun-16 22:00N 39°53' W 075°11'0 0.9
2017-Jun-16 21:29N 39°53' W 075°11'1 2.5
2017-Jun-16 21:00N 39°54' W 075°12'0 0.0
2017-Jun-16 20:30N 39°54' W 075°12'0 0.0
2017-Jun-16 19:59N 39°54' W 075°12'0 0.0
2017-Jun-16 19:30N 39°54' W 075°12'0 0.1
2017-Jun-16 19:00N 39°54' W 075°12'1 1.3
2017-Jun-16 18:30N 39°53' W 075°12'6 9.9
2017-Jun-16 17:55N 39°51' W 075°19'4 9.7
2017-Jun-16 17:30N 39°49' W 075°23'4 8.8
2017-Jun-16 17:00N 39°47' W 075°28'510.3
2017-Jun-16 16:30N 39°42' W 075°31'611.1
2017-Jun-16 16:00N 39°37' W 075°35'5 9.8
2017-Jun-16 15:30N 39°33' W 075°33'5 9.8
2017-Jun-16 15:00N 39°28' W 075°34'611.2
2017-Jun-16 14:30N 39°23' W 075°29'11 1.1
2017-Jun-16 04:10N 39°15' W 075°19'212.7
2017-Jun-16 03:58N 39°17' W 075°22'511.9
2017-Jun-16 03:30N 39°21' W 075°26'713.4
2017-Jun-16 03:00N 39°16' W 075°20'4 0.9
2017-Jun-15 22:56N 39°13' W 075°18'3 7.7
2017-Jun-15 22:29N 39°16' W 075°20'4 7.5
2017-Jun-15 22:00N 39°18' W 075°23'4 7.1
2017-Jun-15 21:30N 39°21' W 075°26'3 6.3
2017-Jun-15 21:00N 39°23' W 075°29'3 6.2
2017-Jun-15 20:30N 39°26' W 075°32'3 5.3
2017-Jun-15 20:00N 39°28' W 075°34'2 4.7
2017-Jun-15 19:31N 39°30' W 075°33'2 4.6
2017-Jun-15 19:00N 39°33' W 075°33'2 4.6
2017-Jun-15 18:30N 39°35' W 075°33'2 4.5
2017-Jun-15 18:00N 39°37' W 075°35'2 4.7
2017-Jun-15 17:30N 39°39' W 075°33'3 6.0
2017-Jun-15 17:00N 39°41' W 075°31'3 6.9
2017-Jun-15 16:30N 39°45' W 075°30'4 7.3
2017-Jun-15 16:00N 39°47' W 075°27'4 7.8
2017-Jun-15 15:30N 39°50' W 075°22'5 8.2
2017-Jun-15 14:56N 39°51' W 075°16'3 7.8
2017-Jun-15 14:30N 39°52' W 075°13'2 1.6
2017-Jun-15 13:30N 39°54' W 075°11'0 0.9
2017-Jun-15 13:01N 39°54' W 075°11'0 0.1
2017-Jun-15 12:31N 39°54' W 075°11'0 0.0
2017-Jun-15 11:58N 39°54' W 075°11'1 1.4
2017-Jun-15 11:30N 39°54' W 075°12'1 1.7
2017-Jun-15 11:00N 39°53' W 075°11'0 0.0
2017-Jun-15 10:30N 39°53' W 075°11'0 0.0
2017-Jun-15 10:00N 39°53' W 075°11'0 0.0
2017-Jun-15 09:31N 39°53' W 075°11'0 0.0
2017-Jun-15 09:00N 39°53' W 075°11'0 0.0
2017-Jun-15 08:30N 39°53' W 075°11'0 0.0
2017-Jun-15 08:00N 39°53' W 075°11'0 0.0
2017-Jun-15 07:30N 39°53' W 075°11'0 0.0
2017-Jun-15 07:00N 39°53' W 075°11'2 4.7
2017-Jun-15 06:31N 39°54' W 075°08'1 1.6
2017-Jun-15 06:00N 39°55' W 075°08'0 0.6
2017-Jun-15 05:30N 39°55' W 075°08'3 5.4
2017-Jun-15 05:00N 39°53' W 075°10'0 0.7
2017-Jun-15 04:30N 39°53' W 075°11'0 0.0
2017-Jun-15 04:00N 39°53' W 075°11'0 0.0
2017-Jun-15 03:30N 39°53' W 075°11'0 0.0
2017-Jun-15 03:00N 39°53' W 075°11'0 0.0
2017-Jun-15 02:30N 39°53' W 075°11'0 0.0
2017-Jun-15 02:00N 39°53' W 075°11'0 0.0
2017-Jun-15 01:30N 39°53' W 075°11'0 0.0
2017-Jun-15 01:00N 39°53' W 075°11'0 0.0
2017-Jun-15 00:30N 39°53' W 075°11'1 2.8
2017-Jun-14 23:59N 39°54' W 075°12'0 0.1
2017-Jun-14 23:26N 39°54' W 075°12'1 1.3
2017-Jun-14 22:59N 39°54' W 075°12'1 1.8
2017-Jun-14 22:29N 39°53' W 075°11'1 2.7
2017-Jun-14 22:00N 39°53' W 075°09'1 2.1
2017-Jun-14 21:30N 39°53' W 075°11'0 0.0
2017-Jun-14 21:00N 39°53' W 075°11'0 0.0
2017-Jun-14 20:30N 39°53' W 075°11'0 0.0
2017-Jun-14 20:00N 39°53' W 075°11'0 0.0
2017-Jun-14 19:31N 39°53' W 075°11'0 0.0
2017-Jun-14 19:01N 39°53' W 075°11'0 0.0
2017-Jun-14 18:31N 39°53' W 075°11'0 0.0
2017-Jun-14 18:00N 39°53' W 075°11'0 0.0
2017-Jun-14 17:30N 39°53' W 075°11'0 0.0
2017-Jun-14 17:00N 39°53' W 075°11'0 0.0
2017-Jun-14 16:30N 39°53' W 075°11'0 0.0
2017-Jun-14 16:00N 39°53' W 075°11'0 0.0
2017-Jun-14 15:30N 39°53' W 075°11'0 0.0
2017-Jun-14 15:00N 39°53' W 075°11'0 0.0
2017-Jun-14 14:00N 39°53' W 075°11'1 1.3
2017-Jun-14 13:30N 39°53' W 075°11'1 1.3
2017-Jun-14 13:00N 39°53' W 075°11'0 0.1
2017-Jun-14 12:30N 39°53' W 075°11'0 0.0
2017-Jun-14 12:00N 39°53' W 075°11'0 0.0
2017-Jun-14 11:30N 39°53' W 075°11'0 0.0
2017-Jun-14 11:00N 39°53' W 075°11'0 0.0
2017-Jun-14 10:30N 39°53' W 075°11'0 0.0
2017-Jun-14 10:00N 39°53' W 075°11'0 0.0
2017-Jun-14 09:30N 39°53' W 075°11'0 0.0
2017-Jun-14 09:01N 39°53' W 075°11'0 0.0
2017-Jun-14 08:30N 39°53' W 075°11'0 0.0
2017-Jun-14 08:00N 39°53' W 075°11'0 0.0
2017-Jun-14 07:30N 39°53' W 075°11'0 0.0
2017-Jun-14 07:00N 39°53' W 075°11'0 0.0
2017-Jun-14 06:31N 39°53' W 075°11'0 0.0
2017-Jun-14 06:00N 39°53' W 075°11'0 0.0
2017-Jun-14 05:30N 39°53' W 075°11'0 0.0
2017-Jun-14 05:00N 39°53' W 075°11'0 0.0
2017-Jun-14 04:30N 39°53' W 075°11'0 0.0
2017-Jun-14 04:00N 39°53' W 075°11'0 0.0
2017-Jun-14 03:30N 39°53' W 075°11'0 0.0
2017-Jun-14 03:00N 39°53' W 075°11'0 0.0
2017-Jun-14 02:30N 39°53' W 075°11'0 0.0
2017-Jun-14 02:00N 39°53' W 075°11'0 0.0
2017-Jun-14 01:30N 39°53' W 075°11'1 1.6
2017-Jun-14 01:00N 39°53' W 075°12'4 8.0
2017-Jun-14 00:30N 39°51' W 075°16'0 0.1
2017-Jun-13 23:58N 39°51' W 075°16'0 0.0
2017-Jun-13 23:28N 39°51' W 075°16'0 0.0
2017-Jun-13 22:59N 39°51' W 075°16'1 1.2
2017-Jun-13 22:30N 39°51' W 075°17'4 7.0
2017-Jun-13 22:00N 39°50' W 075°22'3 6.8
2017-Jun-13 21:30N 39°48' W 075°25'1 1.4
2017-Jun-13 21:00N 39°48' W 075°26'0 0.0
2017-Jun-13 20:30N 39°48' W 075°26'1 2.6
2017-Jun-13 20:00N 39°49' W 075°24'0 0.3
2017-Jun-13 19:30N 39°49' W 075°24'0 0.8
2017-Jun-13 19:00N 39°48' W 075°25'1 2.2
2017-Jun-13 18:30N 39°49' W 075°23'5 9.5
2017-Jun-13 18:00N 39°51' W 075°18'4 8.2
2017-Jun-13 17:30N 39°52' W 075°13'2 3.7
2017-Jun-13 17:00N 39°53' W 075°11'0 0.0
2017-Jun-13 16:30N 39°53' W 075°11'0 0.0
2017-Jun-13 16:01N 39°53' W 075°11'0 0.0
2017-Jun-13 15:30N 39°53' W 075°11'0 0.0
2017-Jun-13 15:00N 39°53' W 075°11'0 0.0
2017-Jun-13 14:30N 39°53' W 075°11'0 0.0
2017-Jun-13 13:31N 39°53' W 075°11'0 0.0
2017-Jun-13 13:00N 39°53' W 075°11'0 0.0
2017-Jun-13 12:30N 39°53' W 075°11'0 0.0
2017-Jun-13 12:00N 39°53' W 075°11'0 0.0
2017-Jun-13 11:30N 39°53' W 075°11'0 0.0
2017-Jun-13 11:00N 39°53' W 075°11'1 2.0
2017-Jun-13 10:30N 39°53' W 075°09'0 0.0
2017-Jun-13 10:00N 39°53' W 075°09'1 1.4
2017-Jun-13 09:30N 39°53' W 075°10'0 0.7
2017-Jun-13 09:00N 39°53' W 075°11'0 0.0
2017-Jun-13 08:30N 39°53' W 075°11'0 0.0
2017-Jun-13 08:01N 39°53' W 075°11'0 0.0
2017-Jun-13 07:30N 39°53' W 075°11'0 0.0
2017-Jun-13 07:00N 39°53' W 075°11'2 3.7
2017-Jun-13 06:30N 39°54' W 075°08'4 8.0
2017-Jun-13 06:00N 39°58' W 075°08'4 8.0
2017-Jun-13 05:30N 39°60' W 075°04'5 9.2
2017-Jun-13 05:00N 40°03' W 074°59'2 4.8
2017-Jun-13 04:30N 40°01' W 075°01'4 8.6
2017-Jun-13 04:00N 39°59' W 075°06'0 0.5
2017-Jun-13 03:30N 39°59' W 075°05'  
Track history (hours):
 
Tides and Currents Weather Stations Pressure Air Temp Water Temp Dewpoint Dewpoint Depression Visibility Wind Speed Wind Dir Waves Ship Positions

Cape Cod

Owner: MORAN TOWING CORPORATION, New Canaan, CT. More information available from US FCC via Universal Licensing System and Coast Guard Vessel Documentation Center.

Last reported at 2017-Jun-23 03:30 UTC. Time now 2017-Jun-23 03:30 UTC.
Position N 39°53' W 075°11'.

Length 33 m; draft 4.8 m.

Type: Tug. MMSI: 366939770.

Date/timePositionNaut miles runAvg speedWind from/ knotsBaromVisibWave heightAir tempDewpointWater temp
2017-Jun-23 03:30N 39°53' W 075°11'0 0.0
2017-Jun-23 03:00N 39°53' W 075°11'0 0.0
2017-Jun-23 02:30N 39°53' W 075°11'0 0.0
2017-Jun-23 02:00N 39°53' W 075°11'0 0.0
2017-Jun-23 01:30N 39°53' W 075°11'0 0.1
2017-Jun-23 01:00N 39°53' W 075°11'2 4.7
2017-Jun-23 00:30N 39°54' W 075°08'0 0.9
2017-Jun-23 00:00N 39°54' W 075°08'2 4.3
2017-Jun-22 23:30N 39°53' W 075°11'0 0.4
2017-Jun-22 23:01N 39°53' W 075°11'0 0.0
2017-Jun-22 22:30N 39°53' W 075°11'2 3.5
2017-Jun-22 22:00N 39°53' W 075°08'1 1.8
2017-Jun-22 21:30N 39°54' W 075°08'0 0.7
2017-Jun-22 21:00N 39°54' W 075°08'0 0.0
2017-Jun-22 20:30N 39°54' W 075°08'0 0.0
2017-Jun-22 20:01N 39°54' W 075°08'0 0.0
2017-Jun-22 19:30N 39°54' W 075°08'0 0.0
2017-Jun-22 19:01N 39°54' W 075°08'0 0.0
2017-Jun-22 18:30N 39°54' W 075°08'0 0.0
2017-Jun-22 18:00N 39°54' W 075°08'0 0.0
2017-Jun-22 17:25N 39°54' W 075°08'0 0.0
2017-Jun-22 16:56N 39°54' W 075°08'0 0.0
2017-Jun-22 16:30N 39°54' W 075°08'0 0.0
2017-Jun-22 16:00N 39°54' W 075°08'0 0.0
2017-Jun-22 15:29N 39°54' W 075°08'0 0.8
2017-Jun-22 15:01N 39°54' W 075°08'0 0.3
2017-Jun-22 14:31N 39°54' W 075°08'2 2.2
2017-Jun-22 13:30N 39°53' W 075°11'0 0.0
2017-Jun-22 13:00N 39°53' W 075°11'0 0.0
2017-Jun-22 12:30N 39°53' W 075°11'0 0.0
2017-Jun-22 12:01N 39°53' W 075°11'0 0.0
2017-Jun-22 11:31N 39°53' W 075°11'0 0.0
2017-Jun-22 11:00N 39°53' W 075°11'0 0.0
2017-Jun-22 10:30N 39°53' W 075°11'0 0.0
2017-Jun-22 10:00N 39°53' W 075°11'0 0.0
2017-Jun-22 09:30N 39°53' W 075°11'0 0.0
2017-Jun-22 09:00N 39°53' W 075°11'0 0.0
2017-Jun-22 08:30N 39°53' W 075°11'0 0.0
2017-Jun-22 08:00N 39°53' W 075°11'0 0.0
2017-Jun-22 07:31N 39°53' W 075°11'0 0.0
2017-Jun-22 07:00N 39°53' W 075°11'0 0.0
2017-Jun-22 06:30N 39°53' W 075°11'0 0.0
2017-Jun-22 06:00N 39°53' W 075°11'0 0.0
2017-Jun-22 05:30N 39°53' W 075°11'0 0.0
2017-Jun-22 05:00N 39°53' W 075°11'0 0.0
2017-Jun-22 04:30N 39°53' W 075°11'0 0.0
2017-Jun-22 04:00N 39°53' W 075°11'0 0.0
2017-Jun-22 03:30N 39°53' W 075°11'0 0.0
2017-Jun-22 03:00N 39°53' W 075°11'0 0.0
2017-Jun-22 02:30N 39°53' W 075°11'0 0.0
2017-Jun-22 02:01N 39°53' W 075°11'0 0.0
2017-Jun-22 01:30N 39°53' W 075°11'0 0.0
2017-Jun-22 01:00N 39°53' W 075°11'0 0.1
2017-Jun-22 00:30N 39°53' W 075°11'5 9.9
2017-Jun-22 00:00N 39°51' W 075°16'3 5.9
2017-Jun-21 23:30N 39°51' W 075°20'0 0.3
2017-Jun-21 22:59N 39°51' W 075°20'2 3.6
2017-Jun-21 22:30N 39°50' W 075°22'1 2.9
2017-Jun-21 22:00N 39°51' W 075°21'0 0.7
2017-Jun-21 21:30N 39°51' W 075°20'0 0.0
2017-Jun-21 21:00N 39°51' W 075°20'0 0.0
2017-Jun-21 20:30N 39°51' W 075°20'0 0.3
2017-Jun-21 20:00N 39°51' W 075°20'3 5.5
2017-Jun-21 19:30N 39°51' W 075°17'3 5.7
2017-Jun-21 19:00N 39°51' W 075°21'2 3.6
2017-Jun-21 18:30N 39°51' W 075°18'510.1
2017-Jun-21 18:00N 39°53' W 075°12'1 2.4
2017-Jun-21 17:31N 39°53' W 075°11'0 0.0
2017-Jun-21 17:00N 39°53' W 075°11'0 0.0
2017-Jun-21 16:30N 39°53' W 075°11'0 0.0
2017-Jun-21 16:00N 39°53' W 075°11'0 0.0
2017-Jun-21 15:31N 39°53' W 075°11'0 0.0
2017-Jun-21 15:00N 39°53' W 075°11'0 0.0
2017-Jun-21 14:30N 39°53' W 075°11'0 0.0
2017-Jun-21 13:31N 39°53' W 075°11'0 0.0
2017-Jun-21 13:00N 39°53' W 075°11'0 0.0
2017-Jun-21 12:31N 39°53' W 075°11'0 0.0
2017-Jun-21 12:00N 39°53' W 075°11'0 0.0
2017-Jun-21 11:30N 39°53' W 075°11'0 0.0
2017-Jun-21 11:01N 39°53' W 075°11'0 0.0
2017-Jun-21 10:30N 39°53' W 075°11'0 0.0
2017-Jun-21 10:00N 39°53' W 075°11'0 0.0
2017-Jun-21 09:30N 39°53' W 075°11'0 0.0
2017-Jun-21 09:00N 39°53' W 075°11'0 0.0
2017-Jun-21 08:30N 39°53' W 075°11'0 0.0
2017-Jun-21 08:00N 39°53' W 075°11'0 0.0
2017-Jun-21 07:31N 39°53' W 075°11'0 0.0
2017-Jun-21 07:00N 39°53' W 075°11'0 0.0
2017-Jun-21 06:30N 39°53' W 075°11'0 0.0
2017-Jun-21 06:00N 39°53' W 075°11'0 0.0
2017-Jun-21 05:30N 39°53' W 075°11'0 0.0
2017-Jun-21 05:00N 39°53' W 075°11'0 0.0
2017-Jun-21 04:30N 39°53' W 075°11'0 0.0
2017-Jun-21 04:00N 39°53' W 075°11'0 0.0
2017-Jun-21 03:30N 39°53' W 075°11'0 0.0
2017-Jun-21 03:00N 39°53' W 075°11'0 0.0
2017-Jun-21 02:31N 39°53' W 075°11'0 0.0
2017-Jun-21 02:01N 39°53' W 075°11'0 0.0
2017-Jun-21 01:30N 39°53' W 075°11'0 0.0
2017-Jun-21 01:00N 39°53' W 075°11'0 0.0
2017-Jun-21 00:30N 39°53' W 075°11'0 0.0
2017-Jun-21 00:00N 39°53' W 075°11'0 0.0
2017-Jun-20 23:30N 39°53' W 075°11'0 0.0
2017-Jun-20 23:00N 39°53' W 075°11'0 0.0
2017-Jun-20 22:31N 39°53' W 075°11'0 0.0
2017-Jun-20 22:00N 39°53' W 075°11'1 2.8
2017-Jun-20 21:30N 39°53' W 075°09'1 1.7
2017-Jun-20 21:00N 39°54' W 075°08'1 2.0
2017-Jun-20 20:30N 39°53' W 075°09'1 2.7
2017-Jun-20 20:00N 39°53' W 075°11'0 0.0
2017-Jun-20 19:30N 39°53' W 075°11'0 0.0
2017-Jun-20 19:00N 39°53' W 075°11'0 0.0
2017-Jun-20 18:30N 39°53' W 075°11'0 0.0
2017-Jun-20 18:00N 39°53' W 075°11'0 0.0
2017-Jun-20 17:30N 39°53' W 075°11'0 0.0
2017-Jun-20 17:00N 39°53' W 075°11'0 0.0
2017-Jun-20 16:31N 39°53' W 075°11'0 0.0
2017-Jun-20 16:00N 39°53' W 075°11'0 0.0
2017-Jun-20 15:30N 39°53' W 075°11'0 0.0
2017-Jun-20 15:00N 39°53' W 075°11'0 0.0
2017-Jun-20 14:30N 39°53' W 075°11'0 0.0
2017-Jun-20 13:30N 39°53' W 075°11'0 0.0
2017-Jun-20 13:00N 39°53' W 075°11'1 1.7
2017-Jun-20 12:30N 39°54' W 075°12'1 1.7
2017-Jun-20 12:00N 39°53' W 075°11'0 0.0
2017-Jun-20 11:30N 39°53' W 075°11'0 0.0
2017-Jun-20 11:01N 39°53' W 075°11'0 0.0
2017-Jun-20 10:30N 39°53' W 075°11'0 0.0
2017-Jun-20 10:01N 39°53' W 075°11'0 0.0
2017-Jun-20 09:31N 39°53' W 075°11'0 0.0
2017-Jun-20 09:00N 39°53' W 075°11'0 0.0
2017-Jun-20 08:31N 39°53' W 075°11'0 0.0
2017-Jun-20 08:00N 39°53' W 075°11'0 0.0
2017-Jun-20 07:30N 39°53' W 075°11'0 0.0
2017-Jun-20 07:00N 39°53' W 075°11'0 0.0
2017-Jun-20 06:30N 39°53' W 075°11'0 0.0
2017-Jun-20 06:00N 39°53' W 075°11'0 0.0
2017-Jun-20 05:31N 39°53' W 075°11'0 0.0
2017-Jun-20 05:01N 39°53' W 075°11'0 0.0
2017-Jun-20 04:30N 39°53' W 075°11'0 0.0
2017-Jun-20 04:01N 39°53' W 075°11'0 0.0
2017-Jun-20 03:31N 39°53' W 075°11'0 0.0
2017-Jun-20 03:01N 39°53' W 075°11'0 0.0
2017-Jun-20 02:30N 39°53' W 075°11'0 0.0
2017-Jun-20 02:01N 39°53' W 075°11'0 0.0
2017-Jun-20 01:31N 39°53' W 075°11'0 0.0
2017-Jun-20 01:00N 39°53' W 075°11'0 0.0
2017-Jun-20 00:30N 39°53' W 075°11'0 0.0
2017-Jun-20 00:00N 39°53' W 075°11'0 0.0
2017-Jun-19 23:30N 39°53' W 075°11'0 0.0
2017-Jun-19 23:00N 39°53' W 075°11'0 0.0
2017-Jun-19 22:30N 39°53' W 075°11'0 0.0
2017-Jun-19 22:00N 39°53' W 075°11'0 0.0
2017-Jun-19 21:31N 39°53' W 075°11'0 0.0
2017-Jun-19 21:00N 39°53' W 075°11'0 0.0
2017-Jun-19 20:30N 39°53' W 075°11'0 0.0
2017-Jun-19 20:00N 39°53' W 075°11'0 0.0
2017-Jun-19 19:31N 39°53' W 075°11'0 0.0
2017-Jun-19 19:00N 39°53' W 075°11'0 0.0
2017-Jun-19 18:30N 39°53' W 075°11'0 0.0
2017-Jun-19 18:01N 39°53' W 075°11'0 0.0
2017-Jun-19 17:30N 39°53' W 075°11'0 0.3
2017-Jun-19 17:01N 39°53' W 075°11'5 8.9
2017-Jun-19 16:30N 39°51' W 075°16'510.6
2017-Jun-19 16:00N 39°50' W 075°22'5 9.2
2017-Jun-19 15:30N 39°47' W 075°27'611.0
2017-Jun-19 15:00N 39°42' W 075°31'1010.2
2017-Jun-19 14:00N 39°32' W 075°33'510.8
2017-Jun-19 13:30N 39°27' W 075°33'611.9
2017-Jun-19 13:00N 39°22' W 075°28'612.3
2017-Jun-19 12:30N 39°18' W 075°22'6 1.4
2017-Jun-19 08:28N 39°13' W 075°18'4 8.2
2017-Jun-19 08:00N 39°16' W 075°21'4 8.8
2017-Jun-19 07:30N 39°19' W 075°24'5 9.2
2017-Jun-19 07:00N 39°23' W 075°28'4 8.7
2017-Jun-19 06:30N 39°26' W 075°32'4 8.3
2017-Jun-19 06:01N 39°30' W 075°33'510.2
2017-Jun-19 05:30N 39°35' W 075°34'5 9.3
2017-Jun-19 05:00N 39°40' W 075°32'510.7
2017-Jun-19 04:30N 39°45' W 075°30'510.4
2017-Jun-19 04:00N 39°48' W 075°25'511.0
2017-Jun-19 03:30N 39°51' W 075°19'510.1
2017-Jun-19 03:00N 39°52' W 075°12'4 8.5
2017-Jun-19 02:30N 39°55' W 075°08'3 5.9
2017-Jun-19 02:00N 39°58' W 075°08'1 2.6
2017-Jun-19 01:31N 39°58' W 075°06'0 0.4
2017-Jun-19 01:00N 39°58' W 075°07'0 0.0
2017-Jun-19 00:30N 39°58' W 075°07'0 0.0
2017-Jun-19 00:00N 39°58' W 075°07'1 2.6
2017-Jun-18 23:30N 39°57' W 075°08'2 4.8
2017-Jun-18 23:00N 39°55' W 075°08'1 1.2
2017-Jun-18 22:30N 39°54' W 075°08'3 5.0
2017-Jun-18 22:00N 39°53' W 075°11'0 0.0
2017-Jun-18 21:30N 39°53' W 075°11'0 0.0
2017-Jun-18 21:00N 39°53' W 075°11'0 0.0
2017-Jun-18 20:30N 39°53' W 075°11'0 0.0
2017-Jun-18 20:00N 39°53' W 075°11'0 0.0
2017-Jun-18 19:30N 39°53' W 075°11'0 0.0
2017-Jun-18 19:00N 39°53' W 075°11'0 0.0
2017-Jun-18 18:30N 39°53' W 075°11'0 0.0
2017-Jun-18 18:01N 39°53' W 075°11'0 0.0
2017-Jun-18 17:31N 39°53' W 075°11'0 0.1
2017-Jun-18 17:00N 39°53' W 075°11'4 7.6
2017-Jun-18 16:29N 39°51' W 075°15'0 0.1
2017-Jun-18 16:00N 39°51' W 075°15'0 0.8
2017-Jun-18 15:30N 39°51' W 075°15'0 0.5
2017-Jun-18 15:01N 39°51' W 075°15'6 5.7
2017-Jun-18 14:00N 39°54' W 075°08'0 0.8
2017-Jun-18 13:30N 39°53' W 075°08'2 3.2
2017-Jun-18 13:00N 39°53' W 075°10'0 0.9
2017-Jun-18 12:30N 39°53' W 075°11'0 0.0
2017-Jun-18 12:00N 39°53' W 075°11'0 0.0
2017-Jun-18 11:30N 39°53' W 075°11'0 0.3
2017-Jun-18 11:00N 39°53' W 075°10'0 0.3
2017-Jun-18 10:31N 39°53' W 075°11'0 0.0
2017-Jun-18 10:00N 39°53' W 075°11'0 0.0
2017-Jun-18 09:30N 39°53' W 075°11'0 0.0
2017-Jun-18 09:01N 39°53' W 075°11'0 0.0
2017-Jun-18 08:31N 39°53' W 075°11'0 0.0
2017-Jun-18 08:01N 39°53' W 075°11'0 0.0
2017-Jun-18 07:31N 39°53' W 075°11'0 0.0
2017-Jun-18 07:01N 39°53' W 075°11'0 0.0
2017-Jun-18 06:31N 39°53' W 075°11'0 0.0
2017-Jun-18 06:00N 39°53' W 075°11'0 0.0
2017-Jun-18 05:30N 39°53' W 075°11'0 0.0
2017-Jun-18 05:00N 39°53' W 075°11'0 0.0
2017-Jun-18 04:30N 39°53' W 075°11'0 0.0
2017-Jun-18 04:00N 39°53' W 075°11'0 0.0
2017-Jun-18 03:30N 39°53' W 075°11'0 0.0
2017-Jun-18 03:00N 39°53' W 075°11'0 0.0
2017-Jun-18 02:30N 39°53' W 075°11'2 3.6
2017-Jun-18 02:00N 39°53' W 075°08'4 8.5
2017-Jun-18 01:30N 39°58' W 075°08'2 3.5
2017-Jun-18 01:00N 39°58' W 075°06'2 4.3
2017-Jun-18 00:30N 39°57' W 075°08'2 4.1
2017-Jun-18 00:00N 39°58' W 075°06'1 1.4
2017-Jun-17 23:30N 39°58' W 075°07'3 5.9
2017-Jun-17 23:00N 39°55' W 075°08'4 7.3
2017-Jun-17 22:30N 39°53' W 075°12'510.3
2017-Jun-17 22:00N 39°51' W 075°18'510.9
2017-Jun-17 21:30N 39°49' W 075°24'611.3
2017-Jun-17 21:00N 39°45' W 075°30'611.4
2017-Jun-17 20:30N 39°39' W 075°33'5 9.9
2017-Jun-17 20:00N 39°35' W 075°33'511.0
2017-Jun-17 19:30N 39°29' W 075°34'510.1
2017-Jun-17 19:00N 39°25' W 075°30'611.1
2017-Jun-17 18:30N 39°21' W 075°26'9 1.9
2017-Jun-17 14:00N 39°14' W 075°18'815.2
2017-Jun-17 13:30N 39°20' W 075°25'714.9
2017-Jun-17 13:01N 39°25' W 075°31'713.2
2017-Jun-17 12:31N 39°32' W 075°33'713.0
2017-Jun-17 12:00N 39°38' W 075°34'612.2
2017-Jun-17 11:31N 39°43' W 075°30'611.7
2017-Jun-17 11:01N 39°48' W 075°26'5 9.5
2017-Jun-17 10:30N 39°51' W 075°21'510.5
2017-Jun-17 10:00N 39°52' W 075°14'3 6.3
2017-Jun-17 09:30N 39°53' W 075°11'1 1.2
2017-Jun-17 08:59N 39°53' W 075°11'1 3.0
2017-Jun-17 08:30N 39°52' W 075°13'1 2.7
2017-Jun-17 08:00N 39°53' W 075°11'1 1.4
2017-Jun-17 07:31N 39°53' W 075°11'0 0.0
2017-Jun-17 07:00N 39°53' W 075°11'0 0.0
2017-Jun-17 06:30N 39°53' W 075°11'0 0.0
2017-Jun-17 06:00N 39°53' W 075°11'0 0.0
2017-Jun-17 05:30N 39°53' W 075°11'0 0.0
2017-Jun-17 05:00N 39°53' W 075°11'0 0.0
2017-Jun-17 04:30N 39°53' W 075°11'0 0.0
2017-Jun-17 04:01N 39°53' W 075°11'0 0.0
2017-Jun-17 03:30N 39°53' W 075°11'0 0.0
2017-Jun-17 03:00N 39°53' W 075°11'2 1.9
2017-Jun-17 01:49N 39°52' W 075°13'2 6.2
2017-Jun-17 01:30N 39°53' W 075°11'0 0.7
2017-Jun-17 01:01N 39°53' W 075°11'0 0.0
2017-Jun-17 00:30N 39°53' W 075°11'0 0.0
2017-Jun-17 00:00N 39°53' W 075°11'0 0.0
2017-Jun-16 23:30N 39°53' W 075°11'0 0.0
2017-Jun-16 23:00N 39°53' W 075°11'0 0.0
2017-Jun-16 22:30N 39°53' W 075°11'0 0.0
2017-Jun-16 22:00N 39°53' W 075°11'0 0.9
2017-Jun-16 21:29N 39°53' W 075°11'1 2.5
2017-Jun-16 21:00N 39°54' W 075°12'0 0.0
2017-Jun-16 20:30N 39°54' W 075°12'0 0.0
2017-Jun-16 19:59N 39°54' W 075°12'0 0.0
2017-Jun-16 19:30N 39°54' W 075°12'0 0.1
2017-Jun-16 19:00N 39°54' W 075°12'1 1.3
2017-Jun-16 18:30N 39°53' W 075°12'6 9.9
2017-Jun-16 17:55N 39°51' W 075°19'4 9.7
2017-Jun-16 17:30N 39°49' W 075°23'4 8.8
2017-Jun-16 17:00N 39°47' W 075°28'510.3
2017-Jun-16 16:30N 39°42' W 075°31'611.1
2017-Jun-16 16:00N 39°37' W 075°35'5 9.8
2017-Jun-16 15:30N 39°33' W 075°33'5 9.8
2017-Jun-16 15:00N 39°28' W 075°34'611.2
2017-Jun-16 14:30N 39°23' W 075°29'11 1.1
2017-Jun-16 04:10N 39°15' W 075°19'212.7
2017-Jun-16 03:58N 39°17' W 075°22'511.9
2017-Jun-16 03:30N 39°21' W 075°26'713.4
2017-Jun-16 03:00N 39°16' W 075°20'4 0.9
2017-Jun-15 22:56N 39°13' W 075°18'3 7.7
2017-Jun-15 22:29N 39°16' W 075°20'4 7.5
2017-Jun-15 22:00N 39°18' W 075°23'4 7.1
2017-Jun-15 21:30N 39°21' W 075°26'3 6.3
2017-Jun-15 21:00N 39°23' W 075°29'3 6.2
2017-Jun-15 20:30N 39°26' W 075°32'3 5.3
2017-Jun-15 20:00N 39°28' W 075°34'2 4.7
2017-Jun-15 19:31N 39°30' W 075°33'2 4.6
2017-Jun-15 19:00N 39°33' W 075°33'2 4.6
2017-Jun-15 18:30N 39°35' W 075°33'2 4.5
2017-Jun-15 18:00N 39°37' W 075°35'2 4.7
2017-Jun-15 17:30N 39°39' W 075°33'3 6.0
2017-Jun-15 17:00N 39°41' W 075°31'3 6.9
2017-Jun-15 16:30N 39°45' W 075°30'4 7.3
2017-Jun-15 16:00N 39°47' W 075°27'4 7.8
2017-Jun-15 15:30N 39°50' W 075°22'5 8.2
2017-Jun-15 14:56N 39°51' W 075°16'3 7.8
2017-Jun-15 14:30N 39°52' W 075°13'2 1.6
2017-Jun-15 13:30N 39°54' W 075°11'0 0.9
2017-Jun-15 13:01N 39°54' W 075°11'0 0.1
2017-Jun-15 12:31N 39°54' W 075°11'0 0.0
2017-Jun-15 11:58N 39°54' W 075°11'1 1.4
2017-Jun-15 11:30N 39°54' W 075°12'1 1.7
2017-Jun-15 11:00N 39°53' W 075°11'0 0.0
2017-Jun-15 10:30N 39°53' W 075°11'0 0.0
2017-Jun-15 10:00N 39°53' W 075°11'0 0.0
2017-Jun-15 09:31N 39°53' W 075°11'0 0.0
2017-Jun-15 09:00N 39°53' W 075°11'0 0.0
2017-Jun-15 08:30N 39°53' W 075°11'0 0.0
2017-Jun-15 08:00N 39°53' W 075°11'0 0.0
2017-Jun-15 07:30N 39°53' W 075°11'0 0.0
2017-Jun-15 07:00N 39°53' W 075°11'2 4.7
2017-Jun-15 06:31N 39°54' W 075°08'1 1.6
2017-Jun-15 06:00N 39°55' W 075°08'0 0.6
2017-Jun-15 05:30N 39°55' W 075°08'3 5.4
2017-Jun-15 05:00N 39°53' W 075°10'0 0.7
2017-Jun-15 04:30N 39°53' W 075°11'0 0.0
2017-Jun-15 04:00N 39°53' W 075°11'0 0.0
2017-Jun-15 03:30N 39°53' W 075°11'0 0.0
2017-Jun-15 03:00N 39°53' W 075°11'0 0.0
2017-Jun-15 02:30N 39°53' W 075°11'0 0.0
2017-Jun-15 02:00N 39°53' W 075°11'0 0.0
2017-Jun-15 01:30N 39°53' W 075°11'0 0.0
2017-Jun-15 01:00N 39°53' W 075°11'0 0.0
2017-Jun-15 00:30N 39°53' W 075°11'1 2.8
2017-Jun-14 23:59N 39°54' W 075°12'0 0.1
2017-Jun-14 23:26N 39°54' W 075°12'1 1.3
2017-Jun-14 22:59N 39°54' W 075°12'1 1.8
2017-Jun-14 22:29N 39°53' W 075°11'1 2.7
2017-Jun-14 22:00N 39°53' W 075°09'1 2.1
2017-Jun-14 21:30N 39°53' W 075°11'0 0.0
2017-Jun-14 21:00N 39°53' W 075°11'0 0.0
2017-Jun-14 20:30N 39°53' W 075°11'0 0.0
2017-Jun-14 20:00N 39°53' W 075°11'0 0.0
2017-Jun-14 19:31N 39°53' W 075°11'0 0.0
2017-Jun-14 19:01N 39°53' W 075°11'0 0.0
2017-Jun-14 18:31N 39°53' W 075°11'0 0.0
2017-Jun-14 18:00N 39°53' W 075°11'0 0.0
2017-Jun-14 17:30N 39°53' W 075°11'0 0.0
2017-Jun-14 17:00N 39°53' W 075°11'0 0.0
2017-Jun-14 16:30N 39°53' W 075°11'0 0.0
2017-Jun-14 16:00N 39°53' W 075°11'0 0.0
2017-Jun-14 15:30N 39°53' W 075°11'0 0.0
2017-Jun-14 15:00N 39°53' W 075°11'0 0.0
2017-Jun-14 14:00N 39°53' W 075°11'1 1.3
2017-Jun-14 13:30N 39°53' W 075°11'1 1.3
2017-Jun-14 13:00N 39°53' W 075°11'0 0.1
2017-Jun-14 12:30N 39°53' W 075°11'0 0.0
2017-Jun-14 12:00N 39°53' W 075°11'0 0.0
2017-Jun-14 11:30N 39°53' W 075°11'0 0.0
2017-Jun-14 11:00N 39°53' W 075°11'0 0.0
2017-Jun-14 10:30N 39°53' W 075°11'0 0.0
2017-Jun-14 10:00N 39°53' W 075°11'0 0.0
2017-Jun-14 09:30N 39°53' W 075°11'0 0.0
2017-Jun-14 09:01N 39°53' W 075°11'0 0.0
2017-Jun-14 08:30N 39°53' W 075°11'0 0.0
2017-Jun-14 08:00N 39°53' W 075°11'0 0.0
2017-Jun-14 07:30N 39°53' W 075°11'0 0.0
2017-Jun-14 07:00N 39°53' W 075°11'0 0.0
2017-Jun-14 06:31N 39°53' W 075°11'0 0.0
2017-Jun-14 06:00N 39°53' W 075°11'0 0.0
2017-Jun-14 05:30N 39°53' W 075°11'0 0.0
2017-Jun-14 05:00N 39°53' W 075°11'0 0.0
2017-Jun-14 04:30N 39°53' W 075°11'0 0.0
2017-Jun-14 04:00N 39°53' W 075°11'0 0.0
2017-Jun-14 03:30N 39°53' W 075°11'0 0.0
2017-Jun-14 03:00N 39°53' W 075°11'0 0.0
2017-Jun-14 02:30N 39°53' W 075°11'0 0.0
2017-Jun-14 02:00N 39°53' W 075°11'0 0.0
2017-Jun-14 01:30N 39°53' W 075°11'1 1.6
2017-Jun-14 01:00N 39°53' W 075°12'4 8.0
2017-Jun-14 00:30N 39°51' W 075°16'0 0.1
2017-Jun-13 23:58N 39°51' W 075°16'0 0.0
2017-Jun-13 23:28N 39°51' W 075°16'0 0.0
2017-Jun-13 22:59N 39°51' W 075°16'1 1.2
2017-Jun-13 22:30N 39°51' W 075°17'4 7.0
2017-Jun-13 22:00N 39°50' W 075°22'3 6.8
2017-Jun-13 21:30N 39°48' W 075°25'1 1.4
2017-Jun-13 21:00N 39°48' W 075°26'0 0.0
2017-Jun-13 20:30N 39°48' W 075°26'1 2.6
2017-Jun-13 20:00N 39°49' W 075°24'0 0.3
2017-Jun-13 19:30N 39°49' W 075°24'0 0.8
2017-Jun-13 19:00N 39°48' W 075°25'1 2.2
2017-Jun-13 18:30N 39°49' W 075°23'5 9.5
2017-Jun-13 18:00N 39°51' W 075°18'4 8.2
2017-Jun-13 17:30N 39°52' W 075°13'2 3.7
2017-Jun-13 17:00N 39°53' W 075°11'0 0.0
2017-Jun-13 16:30N 39°53' W 075°11'0 0.0
2017-Jun-13 16:01N 39°53' W 075°11'0 0.0
2017-Jun-13 15:30N 39°53' W 075°11'0 0.0
2017-Jun-13 15:00N 39°53' W 075°11'0 0.0
2017-Jun-13 14:30N 39°53' W 075°11'0 0.0
2017-Jun-13 13:31N 39°53' W 075°11'0 0.0
2017-Jun-13 13:00N 39°53' W 075°11'0 0.0
2017-Jun-13 12:30N 39°53' W 075°11'0 0.0
2017-Jun-13 12:00N 39°53' W 075°11'0 0.0
2017-Jun-13 11:30N 39°53' W 075°11'0 0.0
2017-Jun-13 11:00N 39°53' W 075°11'1 2.0
2017-Jun-13 10:30N 39°53' W 075°09'0 0.0
2017-Jun-13 10:00N 39°53' W 075°09'1 1.4
2017-Jun-13 09:30N 39°53' W 075°10'0 0.7
2017-Jun-13 09:00N 39°53' W 075°11'0 0.0
2017-Jun-13 08:30N 39°53' W 075°11'0 0.0
2017-Jun-13 08:01N 39°53' W 075°11'0 0.0
2017-Jun-13 07:30N 39°53' W 075°11'0 0.0
2017-Jun-13 07:00N 39°53' W 075°11'2 3.7
2017-Jun-13 06:30N 39°54' W 075°08'4 8.0
2017-Jun-13 06:00N 39°58' W 075°08'4 8.0
2017-Jun-13 05:30N 39°60' W 075°04'5 9.2
2017-Jun-13 05:00N 40°03' W 074°59'2 4.8
2017-Jun-13 04:30N 40°01' W 075°01'4 8.6
2017-Jun-13 04:00N 39°59' W 075°06'0 0.5
2017-Jun-13 03:30N 39°59' W 075°05'  

Dump ship's entire track history